sensor_id;sensor_type;location;lat;lon;timestamp;P1;durP1;ratioP1;P2;durP2;ratioP2
14040;SDS011;7095;51.388;6.196;2023-03-05T00:01:37;12.50;;;3.40;;
14040;SDS011;7095;51.388;6.196;2023-03-05T00:04:06;14.60;;;3.93;;
14040;SDS011;7095;51.388;6.196;2023-03-05T00:06:43;16.23;;;3.67;;
14040;SDS011;7095;51.388;6.196;2023-03-05T00:09:11;13.00;;;3.23;;
14040;SDS011;7095;51.388;6.196;2023-03-05T00:11:41;12.90;;;3.57;;
14040;SDS011;7095;51.388;6.196;2023-03-05T00:14:10;18.90;;;4.73;;
14040;SDS011;7095;51.388;6.196;2023-03-05T00:16:39;24.37;;;4.33;;
14040;SDS011;7095;51.388;6.196;2023-03-05T00:19:07;17.67;;;3.63;;
14040;SDS011;7095;51.388;6.196;2023-03-05T00:21:37;17.87;;;3.90;;
14040;SDS011;7095;51.388;6.196;2023-03-05T00:24:10;15.67;;;3.93;;
14040;SDS011;7095;51.388;6.196;2023-03-05T00:26:39;18.37;;;3.93;;
14040;SDS011;7095;51.388;6.196;2023-03-05T00:29:10;17.47;;;4.47;;
14040;SDS011;7095;51.388;6.196;2023-03-05T00:31:43;17.07;;;4.03;;
14040;SDS011;7095;51.388;6.196;2023-03-05T00:34:12;15.20;;;3.53;;
14040;SDS011;7095;51.388;6.196;2023-03-05T00:36:43;14.87;;;4.03;;
14040;SDS011;7095;51.388;6.196;2023-03-05T00:39:14;18.73;;;3.90;;
14040;SDS011;7095;51.388;6.196;2023-03-05T00:41:43;13.93;;;3.67;;
14040;SDS011;7095;51.388;6.196;2023-03-05T00:44:12;10.93;;;3.03;;
14040;SDS011;7095;51.388;6.196;2023-03-05T00:46:40;17.53;;;4.07;;
14040;SDS011;7095;51.388;6.196;2023-03-05T00:49:08;12.83;;;3.47;;
14040;SDS011;7095;51.388;6.196;2023-03-05T00:51:37;11.37;;;3.33;;
14040;SDS011;7095;51.388;6.196;2023-03-05T00:54:05;10.00;;;3.10;;
14040;SDS011;7095;51.388;6.196;2023-03-05T00:56:35;10.33;;;2.83;;
14040;SDS011;7095;51.388;6.196;2023-03-05T00:59:04;11.67;;;4.07;;
14040;SDS011;7095;51.388;6.196;2023-03-05T01:01:32;9.73;;;2.73;;
14040;SDS011;7095;51.388;6.196;2023-03-05T01:04:02;17.70;;;2.73;;
14040;SDS011;7095;51.388;6.196;2023-03-05T01:06:30;20.27;;;3.90;;
14040;SDS011;7095;51.388;6.196;2023-03-05T01:08:59;14.17;;;2.93;;
14040;SDS011;7095;51.388;6.196;2023-03-05T01:11:27;12.13;;;2.70;;
14040;SDS011;7095;51.388;6.196;2023-03-05T01:13:59;14.53;;;3.70;;
14040;SDS011;7095;51.388;6.196;2023-03-05T01:16:28;14.30;;;3.40;;
14040;SDS011;7095;51.388;6.196;2023-03-05T01:18:57;12.47;;;3.20;;
14040;SDS011;7095;51.388;6.196;2023-03-05T01:21:28;13.17;;;3.20;;
14040;SDS011;7095;51.388;6.196;2023-03-05T01:23:57;19.20;;;3.50;;
14040;SDS011;7095;51.388;6.196;2023-03-05T01:26:25;15.07;;;3.53;;
14040;SDS011;7095;51.388;6.196;2023-03-05T01:28:54;14.43;;;2.90;;
14040;SDS011;7095;51.388;6.196;2023-03-05T01:31:24;14.10;;;4.20;;
14040;SDS011;7095;51.388;6.196;2023-03-05T01:33:53;12.50;;;3.30;;
14040;SDS011;7095;51.388;6.196;2023-03-05T01:36:22;10.67;;;3.63;;
14040;SDS011;7095;51.388;6.196;2023-03-05T01:38:51;15.07;;;3.40;;
14040;SDS011;7095;51.388;6.196;2023-03-05T01:41:19;20.13;;;3.87;;
14040;SDS011;7095;51.388;6.196;2023-03-05T01:43:48;8.80;;;3.07;;
14040;SDS011;7095;51.388;6.196;2023-03-05T01:46:30;15.17;;;3.10;;
14040;SDS011;7095;51.388;6.196;2023-03-05T01:49:16;12.80;;;3.20;;
14040;SDS011;7095;51.388;6.196;2023-03-05T01:51:53;13.47;;;3.53;;
14040;SDS011;7095;51.388;6.196;2023-03-05T01:54:30;12.37;;;3.30;;
14040;SDS011;7095;51.388;6.196;2023-03-05T01:57:02;15.97;;;3.00;;
14040;SDS011;7095;51.388;6.196;2023-03-05T01:59:36;14.70;;;3.50;;
14040;SDS011;7095;51.388;6.196;2023-03-05T02:02:08;11.33;;;3.13;;
14040;SDS011;7095;51.388;6.196;2023-03-05T02:04:38;18.53;;;4.00;;
14040;SDS011;7095;51.388;6.196;2023-03-05T02:07:11;11.77;;;3.00;;
14040;SDS011;7095;51.388;6.196;2023-03-05T02:09:42;13.37;;;3.17;;
14040;SDS011;7095;51.388;6.196;2023-03-05T02:12:10;13.40;;;2.80;;
14040;SDS011;7095;51.388;6.196;2023-03-05T02:14:43;17.33;;;2.67;;
14040;SDS011;7095;51.388;6.196;2023-03-05T02:17:18;11.13;;;3.00;;
14040;SDS011;7095;51.388;6.196;2023-03-05T02:19:48;12.97;;;2.73;;
14040;SDS011;7095;51.388;6.196;2023-03-05T02:22:20;16.77;;;4.43;;
14040;SDS011;7095;51.388;6.196;2023-03-05T02:24:50;9.93;;;2.40;;
14040;SDS011;7095;51.388;6.196;2023-03-05T02:27:22;12.03;;;2.50;;
14040;SDS011;7095;51.388;6.196;2023-03-05T02:30:01;15.67;;;3.37;;
14040;SDS011;7095;51.388;6.196;2023-03-05T02:32:30;12.17;;;2.57;;
14040;SDS011;7095;51.388;6.196;2023-03-05T02:34:58;15.77;;;3.67;;
14040;SDS011;7095;51.388;6.196;2023-03-05T02:37:28;8.30;;;2.47;;
14040;SDS011;7095;51.388;6.196;2023-03-05T02:39:57;5.77;;;2.27;;
14040;SDS011;7095;51.388;6.196;2023-03-05T02:42:25;9.93;;;2.80;;
14040;SDS011;7095;51.388;6.196;2023-03-05T02:44:54;4.07;;;1.40;;
14040;SDS011;7095;51.388;6.196;2023-03-05T02:47:22;11.60;;;2.90;;
14040;SDS011;7095;51.388;6.196;2023-03-05T02:49:51;4.03;;;1.87;;
14040;SDS011;7095;51.388;6.196;2023-03-05T02:52:19;13.10;;;2.60;;
14040;SDS011;7095;51.388;6.196;2023-03-05T02:54:51;9.47;;;2.63;;
14040;SDS011;7095;51.388;6.196;2023-03-05T02:57:22;10.50;;;2.30;;
14040;SDS011;7095;51.388;6.196;2023-03-05T02:59:51;11.87;;;2.80;;
14040;SDS011;7095;51.388;6.196;2023-03-05T03:02:20;13.10;;;3.00;;
14040;SDS011;7095;51.388;6.196;2023-03-05T03:04:49;12.80;;;2.87;;
14040;SDS011;7095;51.388;6.196;2023-03-05T03:07:17;17.33;;;3.83;;
14040;SDS011;7095;51.388;6.196;2023-03-05T03:09:46;21.20;;;4.47;;
14040;SDS011;7095;51.388;6.196;2023-03-05T03:12:17;17.57;;;3.40;;
14040;SDS011;7095;51.388;6.196;2023-03-05T03:14:45;13.97;;;3.50;;
14040;SDS011;7095;51.388;6.196;2023-03-05T03:17:14;18.23;;;4.07;;
14040;SDS011;7095;51.388;6.196;2023-03-05T03:19:44;18.47;;;3.50;;
14040;SDS011;7095;51.388;6.196;2023-03-05T03:22:14;12.50;;;3.47;;
14040;SDS011;7095;51.388;6.196;2023-03-05T03:24:43;9.43;;;3.10;;
14040;SDS011;7095;51.388;6.196;2023-03-05T03:27:11;14.53;;;3.80;;
14040;SDS011;7095;51.388;6.196;2023-03-05T03:29:41;12.87;;;3.40;;
14040;SDS011;7095;51.388;6.196;2023-03-05T03:32:10;8.20;;;2.70;;
14040;SDS011;7095;51.388;6.196;2023-03-05T03:34:38;9.10;;;2.87;;
14040;SDS011;7095;51.388;6.196;2023-03-05T03:37:06;7.57;;;2.90;;
14040;SDS011;7095;51.388;6.196;2023-03-05T03:39:35;13.87;;;3.30;;
14040;SDS011;7095;51.388;6.196;2023-03-05T03:42:04;15.63;;;4.07;;
14040;SDS011;7095;51.388;6.196;2023-03-05T03:44:33;16.50;;;3.23;;
14040;SDS011;7095;51.388;6.196;2023-03-05T03:47:02;7.23;;;3.23;;
14040;SDS011;7095;51.388;6.196;2023-03-05T03:49:31;17.60;;;3.60;;
14040;SDS011;7095;51.388;6.196;2023-03-05T03:51:59;15.73;;;3.23;;
14040;SDS011;7095;51.388;6.196;2023-03-05T03:54:28;12.87;;;3.17;;
14040;SDS011;7095;51.388;6.196;2023-03-05T03:56:56;18.70;;;3.33;;
14040;SDS011;7095;51.388;6.196;2023-03-05T03:59:25;10.43;;;3.17;;
14040;SDS011;7095;51.388;6.196;2023-03-05T04:01:56;12.20;;;2.93;;
14040;SDS011;7095;51.388;6.196;2023-03-05T04:04:26;10.13;;;3.33;;
14040;SDS011;7095;51.388;6.196;2023-03-05T04:06:56;13.67;;;3.23;;
14040;SDS011;7095;51.388;6.196;2023-03-05T04:09:26;11.03;;;3.23;;
14040;SDS011;7095;51.388;6.196;2023-03-05T04:11:55;15.97;;;4.30;;
14040;SDS011;7095;51.388;6.196;2023-03-05T04:14:23;16.13;;;3.97;;
14040;SDS011;7095;51.388;6.196;2023-03-05T04:16:55;9.63;;;3.07;;
14040;SDS011;7095;51.388;6.196;2023-03-05T04:19:25;13.53;;;4.00;;
14040;SDS011;7095;51.388;6.196;2023-03-05T04:21:56;11.43;;;3.50;;
14040;SDS011;7095;51.388;6.196;2023-03-05T04:24:25;12.97;;;3.37;;
14040;SDS011;7095;51.388;6.196;2023-03-05T04:26:54;20.83;;;4.87;;
14040;SDS011;7095;51.388;6.196;2023-03-05T04:29:22;14.30;;;3.50;;
14040;SDS011;7095;51.388;6.196;2023-03-05T04:31:50;11.17;;;3.90;;
14040;SDS011;7095;51.388;6.196;2023-03-05T04:34:19;10.57;;;4.10;;
14040;SDS011;7095;51.388;6.196;2023-03-05T04:36:49;10.67;;;3.77;;
14040;SDS011;7095;51.388;6.196;2023-03-05T04:39:17;15.27;;;3.83;;
14040;SDS011;7095;51.388;6.196;2023-03-05T04:41:47;11.47;;;3.60;;
14040;SDS011;7095;51.388;6.196;2023-03-05T04:44:15;12.27;;;3.73;;
14040;SDS011;7095;51.388;6.196;2023-03-05T04:46:44;12.40;;;3.73;;
14040;SDS011;7095;51.388;6.196;2023-03-05T04:49:13;19.67;;;4.80;;
14040;SDS011;7095;51.388;6.196;2023-03-05T04:51:41;14.83;;;4.30;;
14040;SDS011;7095;51.388;6.196;2023-03-05T04:54:11;11.97;;;4.03;;
14040;SDS011;7095;51.388;6.196;2023-03-05T04:56:39;21.07;;;4.20;;
14040;SDS011;7095;51.388;6.196;2023-03-05T04:59:08;15.67;;;4.13;;
14040;SDS011;7095;51.388;6.196;2023-03-05T05:01:37;8.33;;;3.43;;
14040;SDS011;7095;51.388;6.196;2023-03-05T05:04:05;11.40;;;3.87;;
14040;SDS011;7095;51.388;6.196;2023-03-05T05:06:34;12.53;;;4.47;;
14040;SDS011;7095;51.388;6.196;2023-03-05T05:09:02;15.87;;;4.80;;
14040;SDS011;7095;51.388;6.196;2023-03-05T05:11:32;15.77;;;4.70;;
14040;SDS011;7095;51.388;6.196;2023-03-05T05:14:01;16.47;;;5.00;;
14040;SDS011;7095;51.388;6.196;2023-03-05T05:16:30;14.43;;;4.03;;
14040;SDS011;7095;51.388;6.196;2023-03-05T05:18:59;22.80;;;6.60;;
14040;SDS011;7095;51.388;6.196;2023-03-05T05:21:27;16.70;;;5.27;;
14040;SDS011;7095;51.388;6.196;2023-03-05T05:23:55;22.73;;;5.83;;
14040;SDS011;7095;51.388;6.196;2023-03-05T05:26:24;15.77;;;5.00;;
14040;SDS011;7095;51.388;6.196;2023-03-05T05:28:54;14.70;;;4.63;;
14040;SDS011;7095;51.388;6.196;2023-03-05T05:31:23;18.87;;;5.37;;
14040;SDS011;7095;51.388;6.196;2023-03-05T05:33:51;13.93;;;5.30;;
14040;SDS011;7095;51.388;6.196;2023-03-05T05:36:19;17.77;;;4.57;;
14040;SDS011;7095;51.388;6.196;2023-03-05T05:38:48;18.40;;;4.87;;
14040;SDS011;7095;51.388;6.196;2023-03-05T05:41:17;17.23;;;5.20;;
14040;SDS011;7095;51.388;6.196;2023-03-05T05:43:46;13.40;;;4.93;;
14040;SDS011;7095;51.388;6.196;2023-03-05T05:46:17;16.30;;;4.47;;
14040;SDS011;7095;51.388;6.196;2023-03-05T05:48:46;12.47;;;4.37;;
14040;SDS011;7095;51.388;6.196;2023-03-05T05:51:16;14.87;;;4.50;;
14040;SDS011;7095;51.388;6.196;2023-03-05T05:53:46;14.30;;;4.50;;
14040;SDS011;7095;51.388;6.196;2023-03-05T05:56:15;9.50;;;4.07;;
14040;SDS011;7095;51.388;6.196;2023-03-05T05:58:45;15.33;;;4.50;;
14040;SDS011;7095;51.388;6.196;2023-03-05T06:01:17;19.37;;;4.93;;
14040;SDS011;7095;51.388;6.196;2023-03-05T06:03:47;15.93;;;4.50;;
14040;SDS011;7095;51.388;6.196;2023-03-05T06:06:17;16.27;;;6.30;;
14040;SDS011;7095;51.388;6.196;2023-03-05T06:08:47;14.70;;;4.90;;
14040;SDS011;7095;51.388;6.196;2023-03-05T06:11:16;17.63;;;5.13;;
14040;SDS011;7095;51.388;6.196;2023-03-05T06:13:46;10.80;;;4.57;;
14040;SDS011;7095;51.388;6.196;2023-03-05T06:16:17;13.70;;;5.80;;
14040;SDS011;7095;51.388;6.196;2023-03-05T06:18:47;15.40;;;4.73;;
14040;SDS011;7095;51.388;6.196;2023-03-05T06:21:17;16.03;;;4.80;;
14040;SDS011;7095;51.388;6.196;2023-03-05T06:23:47;14.83;;;4.70;;
14040;SDS011;7095;51.388;6.196;2023-03-05T06:26:17;18.40;;;5.13;;
14040;SDS011;7095;51.388;6.196;2023-03-05T06:28:47;17.07;;;4.73;;
14040;SDS011;7095;51.388;6.196;2023-03-05T06:31:18;14.23;;;4.60;;
14040;SDS011;7095;51.388;6.196;2023-03-05T06:33:48;16.93;;;4.97;;
14040;SDS011;7095;51.388;6.196;2023-03-05T06:36:17;15.40;;;5.17;;
14040;SDS011;7095;51.388;6.196;2023-03-05T06:38:47;14.20;;;5.13;;
14040;SDS011;7095;51.388;6.196;2023-03-05T06:41:19;16.10;;;4.50;;
14040;SDS011;7095;51.388;6.196;2023-03-05T06:43:48;19.23;;;5.10;;
14040;SDS011;7095;51.388;6.196;2023-03-05T06:46:19;16.53;;;5.20;;
14040;SDS011;7095;51.388;6.196;2023-03-05T06:48:49;15.03;;;4.43;;
14040;SDS011;7095;51.388;6.196;2023-03-05T06:51:19;12.57;;;5.00;;
14040;SDS011;7095;51.388;6.196;2023-03-05T06:53:50;11.40;;;4.63;;
14040;SDS011;7095;51.388;6.196;2023-03-05T06:56:21;19.33;;;5.07;;
14040;SDS011;7095;51.388;6.196;2023-03-05T06:58:50;18.27;;;4.80;;
14040;SDS011;7095;51.388;6.196;2023-03-05T07:01:20;15.67;;;5.47;;
14040;SDS011;7095;51.388;6.196;2023-03-05T07:03:50;13.80;;;5.40;;
14040;SDS011;7095;51.388;6.196;2023-03-05T07:06:19;22.77;;;4.87;;
14040;SDS011;7095;51.388;6.196;2023-03-05T07:08:49;15.00;;;5.40;;
14040;SDS011;7095;51.388;6.196;2023-03-05T07:11:20;18.97;;;5.30;;
14040;SDS011;7095;51.388;6.196;2023-03-05T07:13:49;14.93;;;4.70;;
14040;SDS011;7095;51.388;6.196;2023-03-05T07:16:19;18.53;;;6.23;;
14040;SDS011;7095;51.388;6.196;2023-03-05T07:18:50;13.93;;;5.07;;
14040;SDS011;7095;51.388;6.196;2023-03-05T07:21:20;18.90;;;6.13;;
14040;SDS011;7095;51.388;6.196;2023-03-05T07:23:51;21.07;;;5.87;;
14040;SDS011;7095;51.388;6.196;2023-03-05T07:26:20;13.50;;;5.40;;
14040;SDS011;7095;51.388;6.196;2023-03-05T07:28:49;15.07;;;5.37;;
14040;SDS011;7095;51.388;6.196;2023-03-05T07:31:19;17.00;;;5.77;;
14040;SDS011;7095;51.388;6.196;2023-03-05T07:33:53;20.80;;;6.10;;
14040;SDS011;7095;51.388;6.196;2023-03-05T07:36:24;19.57;;;5.10;;
14040;SDS011;7095;51.388;6.196;2023-03-05T07:38:52;10.33;;;5.00;;
14040;SDS011;7095;51.388;6.196;2023-03-05T07:41:21;16.43;;;5.67;;
14040;SDS011;7095;51.388;6.196;2023-03-05T07:43:50;16.73;;;5.27;;
14040;SDS011;7095;51.388;6.196;2023-03-05T07:46:20;14.67;;;4.57;;
14040;SDS011;7095;51.388;6.196;2023-03-05T07:48:53;12.87;;;4.50;;
14040;SDS011;7095;51.388;6.196;2023-03-05T07:51:23;13.13;;;4.67;;
14040;SDS011;7095;51.388;6.196;2023-03-05T07:53:53;16.37;;;5.20;;
14040;SDS011;7095;51.388;6.196;2023-03-05T07:56:24;9.93;;;4.40;;
14040;SDS011;7095;51.388;6.196;2023-03-05T07:58:57;11.60;;;4.63;;
14040;SDS011;7095;51.388;6.196;2023-03-05T08:01:27;13.80;;;4.40;;
14040;SDS011;7095;51.388;6.196;2023-03-05T08:03:56;13.97;;;4.67;;
14040;SDS011;7095;51.388;6.196;2023-03-05T08:06:25;16.93;;;5.77;;
14040;SDS011;7095;51.388;6.196;2023-03-05T08:08:53;10.93;;;4.13;;
14040;SDS011;7095;51.388;6.196;2023-03-05T08:11:22;11.30;;;3.27;;
14040;SDS011;7095;51.388;6.196;2023-03-05T08:13:52;11.17;;;4.00;;
14040;SDS011;7095;51.388;6.196;2023-03-05T08:16:21;11.57;;;3.43;;
14040;SDS011;7095;51.388;6.196;2023-03-05T08:18:54;9.17;;;4.17;;
14040;SDS011;7095;51.388;6.196;2023-03-05T08:21:23;14.97;;;5.23;;
14040;SDS011;7095;51.388;6.196;2023-03-05T08:23:55;14.90;;;5.53;;
14040;SDS011;7095;51.388;6.196;2023-03-05T08:26:25;11.13;;;5.80;;
14040;SDS011;7095;51.388;6.196;2023-03-05T08:28:54;21.53;;;7.10;;
14040;SDS011;7095;51.388;6.196;2023-03-05T08:31:24;14.90;;;5.97;;
14040;SDS011;7095;51.388;6.196;2023-03-05T08:33:55;12.10;;;6.30;;
14040;SDS011;7095;51.388;6.196;2023-03-05T08:36:25;11.23;;;5.83;;
14040;SDS011;7095;51.388;6.196;2023-03-05T08:38:54;13.60;;;5.53;;
14040;SDS011;7095;51.388;6.196;2023-03-05T08:41:24;17.13;;;6.53;;
14040;SDS011;7095;51.388;6.196;2023-03-05T08:43:53;14.13;;;7.80;;
14040;SDS011;7095;51.388;6.196;2023-03-05T08:46:21;13.47;;;7.73;;
14040;SDS011;7095;51.388;6.196;2023-03-05T08:48:50;9.97;;;7.70;;
14040;SDS011;7095;51.388;6.196;2023-03-05T08:51:21;11.57;;;7.90;;
14040;SDS011;7095;51.388;6.196;2023-03-05T08:53:52;11.17;;;8.07;;
14040;SDS011;7095;51.388;6.196;2023-03-05T08:56:21;14.60;;;9.73;;
14040;SDS011;7095;51.388;6.196;2023-03-05T08:58:51;17.50;;;10.47;;
14040;SDS011;7095;51.388;6.196;2023-03-05T09:01:20;20.97;;;11.07;;
14040;SDS011;7095;51.388;6.196;2023-03-05T09:03:49;19.57;;;11.37;;
14040;SDS011;7095;51.388;6.196;2023-03-05T09:06:20;20.03;;;12.17;;
14040;SDS011;7095;51.388;6.196;2023-03-05T09:08:48;17.83;;;11.83;;
14040;SDS011;7095;51.388;6.196;2023-03-05T09:11:17;24.47;;;11.30;;
14040;SDS011;7095;51.388;6.196;2023-03-05T09:13:46;17.77;;;12.47;;
14040;SDS011;7095;51.388;6.196;2023-03-05T09:16:16;17.63;;;12.47;;
14040;SDS011;7095;51.388;6.196;2023-03-05T09:18:45;22.57;;;12.23;;
14040;SDS011;7095;51.388;6.196;2023-03-05T09:21:14;16.80;;;11.67;;
14040;SDS011;7095;51.388;6.196;2023-03-05T09:23:45;28.17;;;12.10;;
14040;SDS011;7095;51.388;6.196;2023-03-05T09:26:14;21.97;;;11.60;;
14040;SDS011;7095;51.388;6.196;2023-03-05T09:28:45;18.53;;;12.00;;
14040;SDS011;7095;51.388;6.196;2023-03-05T09:31:14;24.33;;;13.33;;
14040;SDS011;7095;51.388;6.196;2023-03-05T09:33:42;16.23;;;11.27;;
14040;SDS011;7095;51.388;6.196;2023-03-05T09:36:16;19.77;;;12.33;;
14040;SDS011;7095;51.388;6.196;2023-03-05T09:38:47;18.53;;;12.20;;
14040;SDS011;7095;51.388;6.196;2023-03-05T09:41:16;17.53;;;11.70;;
14040;SDS011;7095;51.388;6.196;2023-03-05T09:43:55;17.07;;;10.17;;
14040;SDS011;7095;51.388;6.196;2023-03-05T09:46:38;14.37;;;9.90;;
14040;SDS011;7095;51.388;6.196;2023-03-05T09:49:15;20.17;;;10.27;;
14040;SDS011;7095;51.388;6.196;2023-03-05T09:51:49;15.37;;;9.00;;
14040;SDS011;7095;51.388;6.196;2023-03-05T09:54:23;10.83;;;8.53;;
14040;SDS011;7095;51.388;6.196;2023-03-05T09:57:01;14.37;;;8.70;;
14040;SDS011;7095;51.388;6.196;2023-03-05T09:59:32;12.70;;;7.87;;
14040;SDS011;7095;51.388;6.196;2023-03-05T10:02:11;12.10;;;7.60;;
14040;SDS011;7095;51.388;6.196;2023-03-05T10:04:48;11.07;;;7.67;;
14040;SDS011;7095;51.388;6.196;2023-03-05T10:07:21;15.97;;;8.60;;
14040;SDS011;7095;51.388;6.196;2023-03-05T10:09:56;10.60;;;7.57;;
14040;SDS011;7095;51.388;6.196;2023-03-05T10:12:30;10.67;;;8.07;;
14040;SDS011;7095;51.388;6.196;2023-03-05T10:15:10;9.70;;;7.00;;
14040;SDS011;7095;51.388;6.196;2023-03-05T10:17:56;9.00;;;6.60;;
14040;SDS011;7095;51.388;6.196;2023-03-05T10:20:38;7.80;;;4.73;;
14040;SDS011;7095;51.388;6.196;2023-03-05T10:23:29;4.03;;;2.50;;
14040;SDS011;7095;51.388;6.196;2023-03-05T10:26:11;5.80;;;3.00;;
14040;SDS011;7095;51.388;6.196;2023-03-05T10:28:48;3.93;;;1.63;;
14040;SDS011;7095;51.388;6.196;2023-03-05T10:31:33;4.13;;;1.50;;
14040;SDS011;7095;51.388;6.196;2023-03-05T10:34:30;3.83;;;1.70;;
14040;SDS011;7095;51.388;6.196;2023-03-05T10:37:21;1.93;;;1.23;;
14040;SDS011;7095;51.388;6.196;2023-03-05T10:40:10;5.43;;;2.03;;
14040;SDS011;7095;51.388;6.196;2023-03-05T10:42:49;5.13;;;1.40;;
14040;SDS011;7095;51.388;6.196;2023-03-05T10:45:26;5.30;;;2.10;;
14040;SDS011;7095;51.388;6.196;2023-03-05T10:48:00;2.20;;;1.80;;
14040;SDS011;7095;51.388;6.196;2023-03-05T10:50:32;2.23;;;1.80;;
14040;SDS011;7095;51.388;6.196;2023-03-05T10:53:06;3.80;;;2.40;;
14040;SDS011;7095;51.388;6.196;2023-03-05T10:55:43;3.77;;;2.33;;
14040;SDS011;7095;51.388;6.196;2023-03-05T10:58:14;5.47;;;2.60;;
14040;SDS011;7095;51.388;6.196;2023-03-05T11:00:56;4.07;;;2.73;;
14040;SDS011;7095;51.388;6.196;2023-03-05T11:03:41;3.53;;;2.60;;
14040;SDS011;7095;51.388;6.196;2023-03-05T11:06:14;8.00;;;3.70;;
14040;SDS011;7095;51.388;6.196;2023-03-05T11:08:42;5.20;;;3.00;;
14040;SDS011;7095;51.388;6.196;2023-03-05T11:11:12;3.90;;;3.13;;
14040;SDS011;7095;51.388;6.196;2023-03-05T11:13:50;5.27;;;2.87;;
14040;SDS011;7095;51.388;6.196;2023-03-05T11:16:24;5.30;;;3.53;;
14040;SDS011;7095;51.388;6.196;2023-03-05T11:21:46;8.77;;;4.10;;
14040;SDS011;7095;51.388;6.196;2023-03-05T11:24:33;6.57;;;4.90;;
14040;SDS011;7095;51.388;6.196;2023-03-05T11:27:01;8.33;;;5.30;;
14040;SDS011;7095;51.388;6.196;2023-03-05T11:29:49;7.73;;;5.60;;
14040;SDS011;7095;51.388;6.196;2023-03-05T11:32:20;9.23;;;5.87;;
14040;SDS011;7095;51.388;6.196;2023-03-05T11:34:50;10.10;;;6.80;;
14040;SDS011;7095;51.388;6.196;2023-03-05T11:37:21;9.17;;;6.77;;
14040;SDS011;7095;51.388;6.196;2023-03-05T11:42:49;13.73;;;9.27;;
14040;SDS011;7095;51.388;6.196;2023-03-05T11:45:23;17.97;;;9.33;;
14040;SDS011;7095;51.388;6.196;2023-03-05T11:47:53;12.23;;;7.13;;
14040;SDS011;7095;51.388;6.196;2023-03-05T11:50:27;7.43;;;6.63;;
14040;SDS011;7095;51.388;6.196;2023-03-05T11:52:57;10.07;;;5.10;;
14040;SDS011;7095;51.388;6.196;2023-03-05T11:55:30;4.43;;;3.50;;
14040;SDS011;7095;51.388;6.196;2023-03-05T11:58:08;5.53;;;3.30;;
14040;SDS011;7095;51.388;6.196;2023-03-05T12:00:50;9.10;;;3.90;;
14040;SDS011;7095;51.388;6.196;2023-03-05T12:03:20;4.87;;;3.17;;
14040;SDS011;7095;51.388;6.196;2023-03-05T12:05:55;5.13;;;2.83;;
14040;SDS011;7095;51.388;6.196;2023-03-05T12:08:26;3.93;;;3.40;;
14040;SDS011;7095;51.388;6.196;2023-03-05T12:11:00;4.37;;;3.23;;
14040;SDS011;7095;51.388;6.196;2023-03-05T12:13:34;5.33;;;3.30;;
14040;SDS011;7095;51.388;6.196;2023-03-05T12:16:13;5.23;;;3.30;;
14040;SDS011;7095;51.388;6.196;2023-03-05T12:18:53;2.73;;;2.53;;
14040;SDS011;7095;51.388;6.196;2023-03-05T12:21:44;3.63;;;2.27;;
14040;SDS011;7095;51.388;6.196;2023-03-05T12:24:36;3.03;;;2.50;;
14040;SDS011;7095;51.388;6.196;2023-03-05T12:27:13;5.33;;;2.93;;
14040;SDS011;7095;51.388;6.196;2023-03-05T12:29:44;2.87;;;2.37;;
14040;SDS011;7095;51.388;6.196;2023-03-05T12:35:28;5.50;;;2.70;;
14040;SDS011;7095;51.388;6.196;2023-03-05T12:44:08;5.77;;;2.50;;
14040;SDS011;7095;51.388;6.196;2023-03-05T12:46:45;2.50;;;2.30;;
14040;SDS011;7095;51.388;6.196;2023-03-05T12:49:45;4.33;;;2.80;;
14040;SDS011;7095;51.388;6.196;2023-03-05T12:52:24;5.23;;;3.00;;
14040;SDS011;7095;51.388;6.196;2023-03-05T12:54:56;3.07;;;2.00;;
14040;SDS011;7095;51.388;6.196;2023-03-05T12:57:42;2.57;;;2.20;;
14040;SDS011;7095;51.388;6.196;2023-03-05T13:00:13;3.87;;;2.00;;
14040;SDS011;7095;51.388;6.196;2023-03-05T13:02:47;5.90;;;2.97;;
14040;SDS011;7095;51.388;6.196;2023-03-05T13:05:23;4.53;;;2.03;;
14040;SDS011;7095;51.388;6.196;2023-03-05T13:08:09;4.00;;;2.50;;
14040;SDS011;7095;51.388;6.196;2023-03-05T13:10:41;4.73;;;3.03;;
14040;SDS011;7095;51.388;6.196;2023-03-05T13:13:17;4.03;;;2.40;;
14040;SDS011;7095;51.388;6.196;2023-03-05T13:15:47;2.60;;;2.10;;
14040;SDS011;7095;51.388;6.196;2023-03-05T13:18:20;6.10;;;2.60;;
14040;SDS011;7095;51.388;6.196;2023-03-05T13:20:59;3.03;;;2.00;;
14040;SDS011;7095;51.388;6.196;2023-03-05T13:23:32;4.47;;;2.47;;
14040;SDS011;7095;51.388;6.196;2023-03-05T13:26:02;5.53;;;3.07;;
14040;SDS011;7095;51.388;6.196;2023-03-05T13:28:38;2.90;;;2.60;;
14040;SDS011;7095;51.388;6.196;2023-03-05T13:31:11;2.63;;;2.30;;
14040;SDS011;7095;51.388;6.196;2023-03-05T13:33:48;9.00;;;3.20;;
14040;SDS011;7095;51.388;6.196;2023-03-05T13:36:20;5.17;;;2.70;;
14040;SDS011;7095;51.388;6.196;2023-03-05T13:38:51;5.07;;;2.77;;
14040;SDS011;7095;51.388;6.196;2023-03-05T13:41:21;4.53;;;2.50;;
14040;SDS011;7095;51.388;6.196;2023-03-05T13:43:51;3.70;;;2.50;;
14040;SDS011;7095;51.388;6.196;2023-03-05T13:46:22;3.13;;;2.27;;
14040;SDS011;7095;51.388;6.196;2023-03-05T13:48:51;4.27;;;2.40;;
14040;SDS011;7095;51.388;6.196;2023-03-05T13:51:20;4.17;;;2.50;;
14040;SDS011;7095;51.388;6.196;2023-03-05T13:53:50;4.67;;;2.20;;
14040;SDS011;7095;51.388;6.196;2023-03-05T13:56:19;5.27;;;2.13;;
14040;SDS011;7095;51.388;6.196;2023-03-05T13:58:49;3.70;;;2.30;;
14040;SDS011;7095;51.388;6.196;2023-03-05T14:01:27;7.53;;;1.97;;
14040;SDS011;7095;51.388;6.196;2023-03-05T14:03:58;3.60;;;2.00;;
14040;SDS011;7095;51.388;6.196;2023-03-05T14:06:31;2.87;;;2.47;;
14040;SDS011;7095;51.388;6.196;2023-03-05T14:09:06;5.50;;;2.40;;
14040;SDS011;7095;51.388;6.196;2023-03-05T14:11:50;4.57;;;2.30;;
14040;SDS011;7095;51.388;6.196;2023-03-05T14:14:20;5.03;;;2.10;;
14040;SDS011;7095;51.388;6.196;2023-03-05T14:16:50;4.13;;;2.20;;
14040;SDS011;7095;51.388;6.196;2023-03-05T14:22:26;3.27;;;1.90;;
14040;SDS011;7095;51.388;6.196;2023-03-05T14:24:59;2.27;;;2.07;;
14040;SDS011;7095;51.388;6.196;2023-03-05T14:27:27;4.40;;;2.00;;
14040;SDS011;7095;51.388;6.196;2023-03-05T14:30:02;2.40;;;2.13;;
14040;SDS011;7095;51.388;6.196;2023-03-05T14:32:32;3.73;;;2.30;;
14040;SDS011;7095;51.388;6.196;2023-03-05T14:35:04;4.13;;;2.37;;
14040;SDS011;7095;51.388;6.196;2023-03-05T14:37:34;5.27;;;2.90;;
14040;SDS011;7095;51.388;6.196;2023-03-05T14:40:14;2.43;;;2.03;;
14040;SDS011;7095;51.388;6.196;2023-03-05T14:42:50;4.40;;;2.67;;
14040;SDS011;7095;51.388;6.196;2023-03-05T14:45:20;3.60;;;2.20;;
14040;SDS011;7095;51.388;6.196;2023-03-05T14:47:52;2.93;;;2.30;;
14040;SDS011;7095;51.388;6.196;2023-03-05T14:50:24;2.93;;;2.37;;
14040;SDS011;7095;51.388;6.196;2023-03-05T14:52:55;6.23;;;2.00;;
14040;SDS011;7095;51.388;6.196;2023-03-05T14:55:27;5.43;;;2.80;;
14040;SDS011;7095;51.388;6.196;2023-03-05T14:57:59;4.30;;;2.27;;
14040;SDS011;7095;51.388;6.196;2023-03-05T15:00:31;2.27;;;1.90;;
14040;SDS011;7095;51.388;6.196;2023-03-05T15:02:59;4.07;;;2.50;;
14040;SDS011;7095;51.388;6.196;2023-03-05T15:05:28;3.00;;;1.90;;
14040;SDS011;7095;51.388;6.196;2023-03-05T15:07:57;3.57;;;2.40;;
14040;SDS011;7095;51.388;6.196;2023-03-05T15:10:27;3.07;;;1.43;;
14040;SDS011;7095;51.388;6.196;2023-03-05T15:12:56;4.90;;;1.80;;
14040;SDS011;7095;51.388;6.196;2023-03-05T15:15:24;2.90;;;1.70;;
14040;SDS011;7095;51.388;6.196;2023-03-05T15:17:54;1.80;;;1.23;;
14040;SDS011;7095;51.388;6.196;2023-03-05T15:20:24;1.80;;;1.70;;
14040;SDS011;7095;51.388;6.196;2023-03-05T15:22:54;4.10;;;1.87;;
14040;SDS011;7095;51.388;6.196;2023-03-05T15:25:23;3.90;;;1.80;;
14040;SDS011;7095;51.388;6.196;2023-03-05T15:27:53;2.77;;;1.50;;
14040;SDS011;7095;51.388;6.196;2023-03-05T15:30:23;3.17;;;1.57;;
14040;SDS011;7095;51.388;6.196;2023-03-05T15:32:53;3.30;;;1.57;;
14040;SDS011;7095;51.388;6.196;2023-03-05T15:35:23;3.00;;;1.60;;
14040;SDS011;7095;51.388;6.196;2023-03-05T15:37:51;1.97;;;1.63;;